SLMX weather

Monos AraƱa Airport
Valle Grande, Santa Cruz Department, Bolivia

Public forecast

Using degrees Celsius for public forecast. Weather courtesy of forecast.io.

METAR (pilot weather report)

Closest report is Viru Viru International Airport, 61.9 nm (114.7 km) ESE. Retrieved 2019/03/24 15:00 UTC (18 minutes ago):

SLVR 241500Z 34005KT 9999 BKN020 31/22 Q1015

TAF (pilot weather forecast)

Forecast is more than 12 hours old.

Closest forecast is Viru Viru International Airport, 61.9 nm (114.7 km) ESE. Retrieved 2019/03/23 12:15 UTC (1 day ago):

TAF SLVR 230950Z 2312/2412 18010KT 9999 SCT020 BKN070 TX31/2320Z TN21/2411Z TEMPO 2321/2400 VRB02KT SCT023 BECMG 2406/2409 19010KT BKN070